sensor_id;sensor_type;location;lat;lon;timestamp;temperature;humidity
9329;DHT22;4703;48.748;19.142;2022-10-23T00:01:38;10.10;99.90
9329;DHT22;4703;48.748;19.142;2022-10-23T00:04:11;8.80;99.90
9329;DHT22;4703;48.748;19.142;2022-10-23T00:06:39;8.90;99.90
9329;DHT22;4703;48.748;19.142;2022-10-23T00:09:08;8.80;99.90
9329;DHT22;4703;48.748;19.142;2022-10-23T00:11:36;11.40;99.90
9329;DHT22;4703;48.748;19.142;2022-10-23T00:14:05;8.80;99.90
9329;DHT22;4703;48.748;19.142;2022-10-23T00:16:33;8.80;99.90
9329;DHT22;4703;48.748;19.142;2022-10-23T00:19:00;8.70;99.90
9329;DHT22;4703;48.748;19.142;2022-10-23T00:21:27;11.00;99.90
9329;DHT22;4703;48.748;19.142;2022-10-23T00:23:54;8.80;99.90
9329;DHT22;4703;48.748;19.142;2022-10-23T00:26:21;9.70;99.90
9329;DHT22;4703;48.748;19.142;2022-10-23T00:28:50;8.70;99.90
9329;DHT22;4703;48.748;19.142;2022-10-23T00:31:20;8.70;99.90
9329;DHT22;4703;48.748;19.142;2022-10-23T00:33:48;8.70;99.90
9329;DHT22;4703;48.748;19.142;2022-10-23T00:36:17;8.70;99.90
9329;DHT22;4703;48.748;19.142;2022-10-23T00:38:46;8.60;99.90
9329;DHT22;4703;48.748;19.142;2022-10-23T00:41:16;8.60;99.90
9329;DHT22;4703;48.748;19.142;2022-10-23T00:43:59;8.50;99.90
9329;DHT22;4703;48.748;19.142;2022-10-23T00:46:35;8.50;99.90
9329;DHT22;4703;48.748;19.142;2022-10-23T00:49:05;10.40;99.90
9329;DHT22;4703;48.748;19.142;2022-10-23T00:51:37;8.40;99.90
9329;DHT22;4703;48.748;19.142;2022-10-23T00:54:06;10.20;99.90
9329;DHT22;4703;48.748;19.142;2022-10-23T00:56:53;8.40;99.90
9329;DHT22;4703;48.748;19.142;2022-10-23T00:59:22;8.30;99.90
9329;DHT22;4703;48.748;19.142;2022-10-23T01:01:49;10.20;99.90
9329;DHT22;4703;48.748;19.142;2022-10-23T01:04:17;8.20;99.90
9329;DHT22;4703;48.748;19.142;2022-10-23T01:09:54;8.30;99.90
9329;DHT22;4703;48.748;19.142;2022-10-23T01:12:55;8.20;99.90
9329;DHT22;4703;48.748;19.142;2022-10-23T01:15:39;8.20;99.90
9329;DHT22;4703;48.748;19.142;2022-10-23T01:18:24;8.20;99.90
9329;DHT22;4703;48.748;19.142;2022-10-23T01:20:56;8.10;99.90
9329;DHT22;4703;48.748;19.142;2022-10-23T01:29:36;8.10;99.90
9329;DHT22;4703;48.748;19.142;2022-10-23T01:32:14;8.20;99.90
9329;DHT22;4703;48.748;19.142;2022-10-23T01:35:13;8.20;99.90
9329;DHT22;4703;48.748;19.142;2022-10-23T01:43:43;8.20;99.90
9329;DHT22;4703;48.748;19.142;2022-10-23T01:46:15;8.20;99.90
9329;DHT22;4703;48.748;19.142;2022-10-23T01:48:50;8.10;99.90
9329;DHT22;4703;48.748;19.142;2022-10-23T01:51:21;8.10;99.90
9329;DHT22;4703;48.748;19.142;2022-10-23T01:53:51;10.70;99.90
9329;DHT22;4703;48.748;19.142;2022-10-23T01:56:25;9.80;99.90
9329;DHT22;4703;48.748;19.142;2022-10-23T01:58:54;8.10;99.90
9329;DHT22;4703;48.748;19.142;2022-10-23T02:01:25;8.20;99.90
9329;DHT22;4703;48.748;19.142;2022-10-23T02:03:55;8.20;99.90
9329;DHT22;4703;48.748;19.142;2022-10-23T02:06:27;8.20;99.90
9329;DHT22;4703;48.748;19.142;2022-10-23T02:08:55;8.10;99.90
9329;DHT22;4703;48.748;19.142;2022-10-23T02:11:22;10.80;99.90
9329;DHT22;4703;48.748;19.142;2022-10-23T02:14:02;8.10;99.90
9329;DHT22;4703;48.748;19.142;2022-10-23T02:16:51;8.10;99.90
9329;DHT22;4703;48.748;19.142;2022-10-23T02:22:22;8.20;99.90
9329;DHT22;4703;48.748;19.142;2022-10-23T02:25:10;11.30;99.90
9329;DHT22;4703;48.748;19.142;2022-10-23T02:27:49;8.20;99.90
9329;DHT22;4703;48.748;19.142;2022-10-23T02:30:19;8.10;99.90
9329;DHT22;4703;48.748;19.142;2022-10-23T02:32:51;8.10;99.90
9329;DHT22;4703;48.748;19.142;2022-10-23T02:35:21;8.00;99.90
9329;DHT22;4703;48.748;19.142;2022-10-23T02:37:57;10.50;99.90
9329;DHT22;4703;48.748;19.142;2022-10-23T02:40:35;8.90;99.90
9329;DHT22;4703;48.748;19.142;2022-10-23T02:43:14;8.00;99.90
9329;DHT22;4703;48.748;19.142;2022-10-23T02:46:00;8.10;99.90
9329;DHT22;4703;48.748;19.142;2022-10-23T02:48:42;8.10;99.90
9329;DHT22;4703;48.748;19.142;2022-10-23T02:51:21;8.10;99.90
9329;DHT22;4703;48.748;19.142;2022-10-23T02:54:02;8.10;99.90
9329;DHT22;4703;48.748;19.142;2022-10-23T02:56:44;8.10;99.90
9329;DHT22;4703;48.748;19.142;2022-10-23T02:59:19;8.10;99.90
9329;DHT22;4703;48.748;19.142;2022-10-23T03:01:54;8.10;99.90
9329;DHT22;4703;48.748;19.142;2022-10-23T03:04:27;8.10;99.90
9329;DHT22;4703;48.748;19.142;2022-10-23T03:06:55;8.10;99.90
9329;DHT22;4703;48.748;19.142;2022-10-23T03:09:22;8.10;99.90
9329;DHT22;4703;48.748;19.142;2022-10-23T03:11:49;8.10;99.90
9329;DHT22;4703;48.748;19.142;2022-10-23T03:14:16;10.00;99.90
9329;DHT22;4703;48.748;19.142;2022-10-23T03:16:43;10.20;99.90
9329;DHT22;4703;48.748;19.142;2022-10-23T03:19:10;8.00;99.90
9329;DHT22;4703;48.748;19.142;2022-10-23T03:21:42;10.30;99.90
9329;DHT22;4703;48.748;19.142;2022-10-23T03:24:09;8.00;99.90
9329;DHT22;4703;48.748;19.142;2022-10-23T03:26:36;7.90;99.90
9329;DHT22;4703;48.748;19.142;2022-10-23T03:29:03;7.90;99.90
9329;DHT22;4703;48.748;19.142;2022-10-23T03:31:30;7.90;99.90
9329;DHT22;4703;48.748;19.142;2022-10-23T03:33:57;9.70;99.90
9329;DHT22;4703;48.748;19.142;2022-10-23T03:36:24;7.90;99.90
9329;DHT22;4703;48.748;19.142;2022-10-23T03:38:51;7.90;99.90
9329;DHT22;4703;48.748;19.142;2022-10-23T03:41:18;8.10;99.90
9329;DHT22;4703;48.748;19.142;2022-10-23T03:43:45;7.80;99.90
9329;DHT22;4703;48.748;19.142;2022-10-23T03:46:12;7.80;99.90
9329;DHT22;4703;48.748;19.142;2022-10-23T03:48:39;7.90;99.90
9329;DHT22;4703;48.748;19.142;2022-10-23T03:51:07;7.90;99.90
9329;DHT22;4703;48.748;19.142;2022-10-23T03:53:34;10.90;99.90
9329;DHT22;4703;48.748;19.142;2022-10-23T03:56:02;7.90;99.90
9329;DHT22;4703;48.748;19.142;2022-10-23T03:58:29;7.90;99.90
9329;DHT22;4703;48.748;19.142;2022-10-23T04:00:57;10.10;99.90
9329;DHT22;4703;48.748;19.142;2022-10-23T04:03:24;7.90;99.90
9329;DHT22;4703;48.748;19.142;2022-10-23T04:05:51;7.90;99.90
9329;DHT22;4703;48.748;19.142;2022-10-23T04:08:18;7.90;99.90
9329;DHT22;4703;48.748;19.142;2022-10-23T04:10:45;7.80;99.90
9329;DHT22;4703;48.748;19.142;2022-10-23T04:13:12;7.80;99.90
9329;DHT22;4703;48.748;19.142;2022-10-23T04:15:39;7.80;99.90
9329;DHT22;4703;48.748;19.142;2022-10-23T04:18:06;7.80;99.90
9329;DHT22;4703;48.748;19.142;2022-10-23T04:20:33;9.00;99.90
9329;DHT22;4703;48.748;19.142;2022-10-23T04:23:00;7.80;99.90
9329;DHT22;4703;48.748;19.142;2022-10-23T04:25:27;7.70;99.90
9329;DHT22;4703;48.748;19.142;2022-10-23T04:27:54;7.70;99.90
9329;DHT22;4703;48.748;19.142;2022-10-23T04:30:21;4.50;99.90
9329;DHT22;4703;48.748;19.142;2022-10-23T04:32:51;7.80;99.90
9329;DHT22;4703;48.748;19.142;2022-10-23T04:35:19;7.80;99.90
9329;DHT22;4703;48.748;19.142;2022-10-23T04:37:46;7.90;99.90
9329;DHT22;4703;48.748;19.142;2022-10-23T04:40:13;7.90;99.90
9329;DHT22;4703;48.748;19.142;2022-10-23T04:42:40;8.40;99.90
9329;DHT22;4703;48.748;19.142;2022-10-23T04:45:07;7.80;99.90
9329;DHT22;4703;48.748;19.142;2022-10-23T04:47:35;7.80;99.90
9329;DHT22;4703;48.748;19.142;2022-10-23T04:50:02;7.80;99.90
9329;DHT22;4703;48.748;19.142;2022-10-23T04:52:29;7.80;99.90
9329;DHT22;4703;48.748;19.142;2022-10-23T04:54:56;7.80;99.90
9329;DHT22;4703;48.748;19.142;2022-10-23T04:57:23;7.80;99.90
9329;DHT22;4703;48.748;19.142;2022-10-23T04:59:50;7.80;99.90
9329;DHT22;4703;48.748;19.142;2022-10-23T05:02:17;7.80;99.90
9329;DHT22;4703;48.748;19.142;2022-10-23T05:04:44;7.80;99.90
9329;DHT22;4703;48.748;19.142;2022-10-23T05:07:11;7.80;99.90
9329;DHT22;4703;48.748;19.142;2022-10-23T05:09:38;7.90;99.90
9329;DHT22;4703;48.748;19.142;2022-10-23T05:12:05;7.90;99.90
9329;DHT22;4703;48.748;19.142;2022-10-23T05:14:32;7.90;99.90
9329;DHT22;4703;48.748;19.142;2022-10-23T05:17:11;7.80;99.90
9329;DHT22;4703;48.748;19.142;2022-10-23T05:19:53;7.90;99.90
9329;DHT22;4703;48.748;19.142;2022-10-23T05:22:23;7.90;99.90
9329;DHT22;4703;48.748;19.142;2022-10-23T05:24:52;7.90;99.90
9329;DHT22;4703;48.748;19.142;2022-10-23T05:27:19;7.90;99.90
9329;DHT22;4703;48.748;19.142;2022-10-23T05:29:46;9.00;99.90
9329;DHT22;4703;48.748;19.142;2022-10-23T05:32:15;7.90;99.90
9329;DHT22;4703;48.748;19.142;2022-10-23T05:34:42;7.40;99.90
9329;DHT22;4703;48.748;19.142;2022-10-23T05:37:12;7.80;99.90
9329;DHT22;4703;48.748;19.142;2022-10-23T05:39:40;8.00;99.90
9329;DHT22;4703;48.748;19.142;2022-10-23T05:42:08;8.00;99.90
9329;DHT22;4703;48.748;19.142;2022-10-23T05:44:35;10.60;99.90
9329;DHT22;4703;48.748;19.142;2022-10-23T05:47:02;8.00;99.90
9329;DHT22;4703;48.748;19.142;2022-10-23T05:49:29;8.00;99.90
9329;DHT22;4703;48.748;19.142;2022-10-23T05:51:56;8.00;99.90
9329;DHT22;4703;48.748;19.142;2022-10-23T05:54:23;8.00;99.90
9329;DHT22;4703;48.748;19.142;2022-10-23T05:56:50;8.00;99.90
9329;DHT22;4703;48.748;19.142;2022-10-23T05:59:17;8.00;99.90
9329;DHT22;4703;48.748;19.142;2022-10-23T06:01:48;8.00;99.90
9329;DHT22;4703;48.748;19.142;2022-10-23T06:04:15;11.70;99.90
9329;DHT22;4703;48.748;19.142;2022-10-23T06:06:45;8.00;99.90
9329;DHT22;4703;48.748;19.142;2022-10-23T06:09:14;8.10;99.90
9329;DHT22;4703;48.748;19.142;2022-10-23T06:11:41;8.10;99.90
9329;DHT22;4703;48.748;19.142;2022-10-23T06:14:09;8.20;99.90
9329;DHT22;4703;48.748;19.142;2022-10-23T06:16:36;8.10;99.90
9329;DHT22;4703;48.748;19.142;2022-10-23T06:19:03;8.10;99.90
9329;DHT22;4703;48.748;19.142;2022-10-23T06:21:30;8.10;99.90
9329;DHT22;4703;48.748;19.142;2022-10-23T06:23:56;8.20;99.90
9329;DHT22;4703;48.748;19.142;2022-10-23T06:26:23;10.60;99.90
9329;DHT22;4703;48.748;19.142;2022-10-23T06:28:50;11.10;99.90
9329;DHT22;4703;48.748;19.142;2022-10-23T06:31:17;8.30;99.90
9329;DHT22;4703;48.748;19.142;2022-10-23T06:33:45;8.30;99.90
9329;DHT22;4703;48.748;19.142;2022-10-23T06:36:12;8.30;99.90
9329;DHT22;4703;48.748;19.142;2022-10-23T06:38:39;8.30;99.90
9329;DHT22;4703;48.748;19.142;2022-10-23T06:41:15;8.40;99.90
9329;DHT22;4703;48.748;19.142;2022-10-23T06:43:43;8.40;99.90
9329;DHT22;4703;48.748;19.142;2022-10-23T06:46:13;8.50;99.90
9329;DHT22;4703;48.748;19.142;2022-10-23T06:48:41;8.50;99.90
9329;DHT22;4703;48.748;19.142;2022-10-23T06:51:10;8.50;99.90
9329;DHT22;4703;48.748;19.142;2022-10-23T06:53:39;8.60;99.90
9329;DHT22;4703;48.748;19.142;2022-10-23T06:56:07;8.60;99.90
9329;DHT22;4703;48.748;19.142;2022-10-23T06:58:37;8.70;99.90
9329;DHT22;4703;48.748;19.142;2022-10-23T07:01:11;9.10;99.90
9329;DHT22;4703;48.748;19.142;2022-10-23T07:03:39;8.80;99.90
9329;DHT22;4703;48.748;19.142;2022-10-23T07:06:08;8.90;99.90
9329;DHT22;4703;48.748;19.142;2022-10-23T07:08:36;8.90;99.90
9329;DHT22;4703;48.748;19.142;2022-10-23T07:11:05;10.30;99.90
9329;DHT22;4703;48.748;19.142;2022-10-23T07:13:33;9.00;99.90
9329;DHT22;4703;48.748;19.142;2022-10-23T07:16:12;9.00;99.90
9329;DHT22;4703;48.748;19.142;2022-10-23T07:18:41;9.10;99.90
9329;DHT22;4703;48.748;19.142;2022-10-23T07:21:08;9.20;99.90
9329;DHT22;4703;48.748;19.142;2022-10-23T07:23:35;9.50;99.90
9329;DHT22;4703;48.748;19.142;2022-10-23T07:26:11;9.20;99.90
9329;DHT22;4703;48.748;19.142;2022-10-23T07:28:44;9.30;99.90
9329;DHT22;4703;48.748;19.142;2022-10-23T07:31:13;9.30;99.90
9329;DHT22;4703;48.748;19.142;2022-10-23T07:33:40;9.30;99.90
9329;DHT22;4703;48.748;19.142;2022-10-23T07:36:08;10.30;99.90
9329;DHT22;4703;48.748;19.142;2022-10-23T07:38:35;9.40;99.90
9329;DHT22;4703;48.748;19.142;2022-10-23T07:41:02;9.50;99.90
9329;DHT22;4703;48.748;19.142;2022-10-23T07:43:33;9.50;99.90
9329;DHT22;4703;48.748;19.142;2022-10-23T07:46:03;9.50;99.90
9329;DHT22;4703;48.748;19.142;2022-10-23T07:48:30;9.50;99.90
9329;DHT22;4703;48.748;19.142;2022-10-23T07:51:03;9.60;99.90
9329;DHT22;4703;48.748;19.142;2022-10-23T07:53:36;9.60;99.90
9329;DHT22;4703;48.748;19.142;2022-10-23T07:56:15;9.70;99.90
9329;DHT22;4703;48.748;19.142;2022-10-23T07:58:44;11.20;99.90
9329;DHT22;4703;48.748;19.142;2022-10-23T08:01:35;9.70;99.90
9329;DHT22;4703;48.748;19.142;2022-10-23T08:04:04;9.80;99.90
9329;DHT22;4703;48.748;19.142;2022-10-23T08:06:32;9.80;99.90
9329;DHT22;4703;48.748;19.142;2022-10-23T08:09:01;9.80;99.90
9329;DHT22;4703;48.748;19.142;2022-10-23T08:11:33;12.50;99.90
9329;DHT22;4703;48.748;19.142;2022-10-23T08:14:03;9.90;99.90
9329;DHT22;4703;48.748;19.142;2022-10-23T08:16:32;9.90;99.90
9329;DHT22;4703;48.748;19.142;2022-10-23T08:19:00;10.00;99.90
9329;DHT22;4703;48.748;19.142;2022-10-23T08:21:27;10.00;99.90
9329;DHT22;4703;48.748;19.142;2022-10-23T08:23:56;10.00;99.90
9329;DHT22;4703;48.748;19.142;2022-10-23T08:26:24;10.10;99.90
9329;DHT22;4703;48.748;19.142;2022-10-23T08:28:52;10.10;99.90
9329;DHT22;4703;48.748;19.142;2022-10-23T08:31:20;10.10;99.90
9329;DHT22;4703;48.748;19.142;2022-10-23T08:33:48;10.10;99.90
9329;DHT22;4703;48.748;19.142;2022-10-23T08:36:22;10.20;99.90
9329;DHT22;4703;48.748;19.142;2022-10-23T08:38:54;10.20;99.90
9329;DHT22;4703;48.748;19.142;2022-10-23T08:47:25;10.30;99.90
9329;DHT22;4703;48.748;19.142;2022-10-23T08:50:02;10.40;99.90
9329;DHT22;4703;48.748;19.142;2022-10-23T08:52:54;10.40;99.90
9329;DHT22;4703;48.748;19.142;2022-10-23T08:55:40;10.40;99.90
9329;DHT22;4703;48.748;19.142;2022-10-23T09:01:45;10.50;99.90
9329;DHT22;4703;48.748;19.142;2022-10-23T09:04:14;10.50;99.90
9329;DHT22;4703;48.748;19.142;2022-10-23T09:09:58;10.50;99.90
9329;DHT22;4703;48.748;19.142;2022-10-23T09:12:45;10.60;99.90
9329;DHT22;4703;48.748;19.142;2022-10-23T09:15:28;10.70;99.90
9329;DHT22;4703;48.748;19.142;2022-10-23T09:18:06;10.70;99.90
9329;DHT22;4703;48.748;19.142;2022-10-23T09:20:44;10.70;99.90
9329;DHT22;4703;48.748;19.142;2022-10-23T09:23:29;10.70;99.90
9329;DHT22;4703;48.748;19.142;2022-10-23T09:25:59;10.70;99.90
9329;DHT22;4703;48.748;19.142;2022-10-23T09:28:30;10.70;99.90
9329;DHT22;4703;48.748;19.142;2022-10-23T09:31:08;10.70;99.90
9329;DHT22;4703;48.748;19.142;2022-10-23T09:33:38;10.70;99.90
9329;DHT22;4703;48.748;19.142;2022-10-23T09:36:24;10.70;99.90
9329;DHT22;4703;48.748;19.142;2022-10-23T09:38:58;10.70;99.90
9329;DHT22;4703;48.748;19.142;2022-10-23T09:41:34;10.90;99.90
9329;DHT22;4703;48.748;19.142;2022-10-23T09:44:22;10.80;99.90
9329;DHT22;4703;48.748;19.142;2022-10-23T09:47:07;10.90;99.90
9329;DHT22;4703;48.748;19.142;2022-10-23T09:49:39;11.00;99.90
9329;DHT22;4703;48.748;19.142;2022-10-23T09:54:57;11.20;99.90
9329;DHT22;4703;48.748;19.142;2022-10-23T09:57:42;11.30;99.90
9329;DHT22;4703;48.748;19.142;2022-10-23T10:00:15;11.30;99.90
9329;DHT22;4703;48.748;19.142;2022-10-23T10:03:04;11.40;99.90
9329;DHT22;4703;48.748;19.142;2022-10-23T10:05:33;11.50;99.90
9329;DHT22;4703;48.748;19.142;2022-10-23T10:11:11;11.60;99.90
9329;DHT22;4703;48.748;19.142;2022-10-23T10:16:37;11.70;99.90
9329;DHT22;4703;48.748;19.142;2022-10-23T10:22:15;11.70;99.90
9329;DHT22;4703;48.748;19.142;2022-10-23T10:25:02;11.70;99.90
9329;DHT22;4703;48.748;19.142;2022-10-23T10:27:49;11.70;99.90
9329;DHT22;4703;48.748;19.142;2022-10-23T10:30:23;11.80;99.90
9329;DHT22;4703;48.748;19.142;2022-10-23T10:38:54;11.90;99.90
9329;DHT22;4703;48.748;19.142;2022-10-23T10:41:49;11.90;99.90
9329;DHT22;4703;48.748;19.142;2022-10-23T10:44:32;12.00;99.90
9329;DHT22;4703;48.748;19.142;2022-10-23T10:47:25;12.20;99.90
9329;DHT22;4703;48.748;19.142;2022-10-23T10:50:16;12.30;99.90
9329;DHT22;4703;48.748;19.142;2022-10-23T10:55:40;13.10;99.90
9329;DHT22;4703;48.748;19.142;2022-10-23T11:00:51;12.70;99.90
9329;DHT22;4703;48.748;19.142;2022-10-23T11:03:38;12.80;99.90
9329;DHT22;4703;48.748;19.142;2022-10-23T11:06:15;13.10;99.90
9329;DHT22;4703;48.748;19.142;2022-10-23T11:08:45;13.40;99.90
9329;DHT22;4703;48.748;19.142;2022-10-23T11:11:27;13.70;99.90
9329;DHT22;4703;48.748;19.142;2022-10-23T11:13:55;14.00;99.90
9329;DHT22;4703;48.748;19.142;2022-10-23T11:16:26;16.60;99.90
9329;DHT22;4703;48.748;19.142;2022-10-23T11:19:24;14.40;99.90
9329;DHT22;4703;48.748;19.142;2022-10-23T11:22:10;14.60;99.90
9329;DHT22;4703;48.748;19.142;2022-10-23T11:25:23;15.60;99.90
9329;DHT22;4703;48.748;19.142;2022-10-23T11:31:34;14.90;99.90
9329;DHT22;4703;48.748;19.142;2022-10-23T11:34:30;15.10;99.90
9329;DHT22;4703;48.748;19.142;2022-10-23T11:37:05;15.30;99.90
9329;DHT22;4703;48.748;19.142;2022-10-23T11:39:38;16.30;99.90
9329;DHT22;4703;48.748;19.142;2022-10-23T11:44:49;15.50;99.90
9329;DHT22;4703;48.748;19.142;2022-10-23T11:47:34;15.60;99.90
9329;DHT22;4703;48.748;19.142;2022-10-23T11:52:53;15.80;99.90
9329;DHT22;4703;48.748;19.142;2022-10-23T11:55:39;15.80;99.90
9329;DHT22;4703;48.748;19.142;2022-10-23T11:58:17;17.90;99.90
9329;DHT22;4703;48.748;19.142;2022-10-23T12:00:55;15.60;99.90
9329;DHT22;4703;48.748;19.142;2022-10-23T12:03:31;15.90;99.90
9329;DHT22;4703;48.748;19.142;2022-10-23T12:06:06;15.40;99.90
9329;DHT22;4703;48.748;19.142;2022-10-23T12:08:42;15.30;99.90
9329;DHT22;4703;48.748;19.142;2022-10-23T12:11:46;15.20;99.90
9329;DHT22;4703;48.748;19.142;2022-10-23T12:14:32;15.10;99.90
9329;DHT22;4703;48.748;19.142;2022-10-23T12:17:38;15.00;99.90
9329;DHT22;4703;48.748;19.142;2022-10-23T12:34:22;15.50;99.90
9329;DHT22;4703;48.748;19.142;2022-10-23T12:37:37;14.90;99.90
9329;DHT22;4703;48.748;19.142;2022-10-23T12:40:10;14.90;99.90
9329;DHT22;4703;48.748;19.142;2022-10-23T12:42:38;15.00;99.90
9329;DHT22;4703;48.748;19.142;2022-10-23T12:45:18;16.70;99.90
9329;DHT22;4703;48.748;19.142;2022-10-23T12:47:47;16.40;99.90
9329;DHT22;4703;48.748;19.142;2022-10-23T12:50:25;15.30;99.90
9329;DHT22;4703;48.748;19.142;2022-10-23T12:53:02;15.10;99.90
9329;DHT22;4703;48.748;19.142;2022-10-23T12:55:46;15.20;99.90
9329;DHT22;4703;48.748;19.142;2022-10-23T12:58:30;15.30;99.90
9329;DHT22;4703;48.748;19.142;2022-10-23T13:01:01;15.20;99.90
9329;DHT22;4703;48.748;19.142;2022-10-23T13:03:31;17.10;99.90
9329;DHT22;4703;48.748;19.142;2022-10-23T13:06:00;15.40;99.90
9329;DHT22;4703;48.748;19.142;2022-10-23T13:08:42;17.40;99.90
9329;DHT22;4703;48.748;19.142;2022-10-23T13:11:14;16.80;99.90
9329;DHT22;4703;48.748;19.142;2022-10-23T13:13:42;16.30;99.90
9329;DHT22;4703;48.748;19.142;2022-10-23T13:16:20;16.40;99.90
9329;DHT22;4703;48.748;19.142;2022-10-23T13:18:49;15.40;99.90
9329;DHT22;4703;48.748;19.142;2022-10-23T13:21:25;16.20;99.90
9329;DHT22;4703;48.748;19.142;2022-10-23T13:23:54;15.40;99.90
9329;DHT22;4703;48.748;19.142;2022-10-23T13:26:36;16.10;99.90
9329;DHT22;4703;48.748;19.142;2022-10-23T13:29:20;15.30;99.90
9329;DHT22;4703;48.748;19.142;2022-10-23T13:31:50;16.90;99.90
9329;DHT22;4703;48.748;19.142;2022-10-23T13:34:20;15.30;99.90
9329;DHT22;4703;48.748;19.142;2022-10-23T13:36:55;15.40;99.90
9329;DHT22;4703;48.748;19.142;2022-10-23T13:39:31;17.00;99.90
9329;DHT22;4703;48.748;19.142;2022-10-23T13:42:07;16.70;99.90
9329;DHT22;4703;48.748;19.142;2022-10-23T13:44:37;15.20;99.90
9329;DHT22;4703;48.748;19.142;2022-10-23T13:47:04;16.20;99.90
9329;DHT22;4703;48.748;19.142;2022-10-23T13:49:31;17.00;99.90
9329;DHT22;4703;48.748;19.142;2022-10-23T13:51:59;15.10;99.90
9329;DHT22;4703;48.748;19.142;2022-10-23T13:54:27;15.70;99.90
9329;DHT22;4703;48.748;19.142;2022-10-23T13:56:55;15.80;99.90
9329;DHT22;4703;48.748;19.142;2022-10-23T13:59:22;15.50;99.90
9329;DHT22;4703;48.748;19.142;2022-10-23T14:01:50;15.60;99.90
9329;DHT22;4703;48.748;19.142;2022-10-23T14:04:18;15.70;99.90
9329;DHT22;4703;48.748;19.142;2022-10-23T14:06:45;16.90;99.90
9329;DHT22;4703;48.748;19.142;2022-10-23T14:09:16;16.20;99.90
9329;DHT22;4703;48.748;19.142;2022-10-23T14:11:44;14.30;99.90
9329;DHT22;4703;48.748;19.142;2022-10-23T14:14:11;16.70;99.90
9329;DHT22;4703;48.748;19.142;2022-10-23T14:16:38;16.10;99.90
9329;DHT22;4703;48.748;19.142;2022-10-23T14:19:05;15.10;99.90
9329;DHT22;4703;48.748;19.142;2022-10-23T14:21:33;15.60;99.90
9329;DHT22;4703;48.748;19.142;2022-10-23T14:24:00;15.30;99.90
9329;DHT22;4703;48.748;19.142;2022-10-23T14:26:27;15.50;99.90
9329;DHT22;4703;48.748;19.142;2022-10-23T14:28:56;15.90;99.90
9329;DHT22;4703;48.748;19.142;2022-10-23T14:31:32;15.00;99.90
9329;DHT22;4703;48.748;19.142;2022-10-23T14:33:59;15.00;99.90
9329;DHT22;4703;48.748;19.142;2022-10-23T14:36:27;14.80;99.90
9329;DHT22;4703;48.748;19.142;2022-10-23T14:39:15;15.90;99.90
9329;DHT22;4703;48.748;19.142;2022-10-23T14:41:42;15.60;99.90
9329;DHT22;4703;48.748;19.142;2022-10-23T14:44:09;16.10;99.90
9329;DHT22;4703;48.748;19.142;2022-10-23T14:46:35;15.60;99.90
9329;DHT22;4703;48.748;19.142;2022-10-23T14:49:04;14.70;99.90
9329;DHT22;4703;48.748;19.142;2022-10-23T14:51:31;14.60;99.90
9329;DHT22;4703;48.748;19.142;2022-10-23T14:53:59;14.60;99.90
9329;DHT22;4703;48.748;19.142;2022-10-23T14:56:36;16.40;99.90
9329;DHT22;4703;48.748;19.142;2022-10-23T14:59:05;14.40;99.90
9329;DHT22;4703;48.748;19.142;2022-10-23T15:01:39;16.50;99.90
9329;DHT22;4703;48.748;19.142;2022-10-23T15:04:13;14.30;99.90
9329;DHT22;4703;48.748;19.142;2022-10-23T15:06:41;14.80;99.90
9329;DHT22;4703;48.748;19.142;2022-10-23T15:09:08;14.20;99.90
9329;DHT22;4703;48.748;19.142;2022-10-23T15:11:35;14.70;99.90
9329;DHT22;4703;48.748;19.142;2022-10-23T15:14:02;15.30;99.90
9329;DHT22;4703;48.748;19.142;2022-10-23T15:16:29;14.90;99.90
9329;DHT22;4703;48.748;19.142;2022-10-23T15:18:56;14.00;99.90
9329;DHT22;4703;48.748;19.142;2022-10-23T15:21:24;16.00;99.90
9329;DHT22;4703;48.748;19.142;2022-10-23T15:23:51;16.30;99.90
9329;DHT22;4703;48.748;19.142;2022-10-23T15:26:20;13.90;99.90
9329;DHT22;4703;48.748;19.142;2022-10-23T15:28:56;15.00;99.90
9329;DHT22;4703;48.748;19.142;2022-10-23T15:33:56;13.70;99.90
9329;DHT22;4703;48.748;19.142;2022-10-23T15:36:24;15.10;99.90
9329;DHT22;4703;48.748;19.142;2022-10-23T15:38:51;15.80;99.90
9329;DHT22;4703;48.748;19.142;2022-10-23T15:41:24;14.40;99.90
9329;DHT22;4703;48.748;19.142;2022-10-23T15:43:53;14.00;99.90
9329;DHT22;4703;48.748;19.142;2022-10-23T15:46:20;14.80;99.90
9329;DHT22;4703;48.748;19.142;2022-10-23T15:48:47;13.40;99.90
9329;DHT22;4703;48.748;19.142;2022-10-23T15:51:14;15.30;99.90
9329;DHT22;4703;48.748;19.142;2022-10-23T15:53:41;13.20;99.90
9329;DHT22;4703;48.748;19.142;2022-10-23T15:56:08;14.00;99.90
9329;DHT22;4703;48.748;19.142;2022-10-23T15:58:35;14.70;99.90
9329;DHT22;4703;48.748;19.142;2022-10-23T16:01:03;15.40;99.90
9329;DHT22;4703;48.748;19.142;2022-10-23T16:03:36;13.00;99.90
9329;DHT22;4703;48.748;19.142;2022-10-23T16:06:13;14.60;99.90
9329;DHT22;4703;48.748;19.142;2022-10-23T16:08:42;14.20;99.90
9329;DHT22;4703;48.748;19.142;2022-10-23T16:11:20;13.90;99.90
9329;DHT22;4703;48.748;19.142;2022-10-23T16:13:48;12.70;99.90
9329;DHT22;4703;48.748;19.142;2022-10-23T16:16:16;12.80;99.90
9329;DHT22;4703;48.748;19.142;2022-10-23T16:18:44;13.40;99.90
9329;DHT22;4703;48.748;19.142;2022-10-23T16:21:23;12.70;99.90
9329;DHT22;4703;48.748;19.142;2022-10-23T16:23:54;12.60;99.90
9329;DHT22;4703;48.748;19.142;2022-10-23T16:26:22;12.60;99.90
9329;DHT22;4703;48.748;19.142;2022-10-23T16:28:57;12.60;99.90
9329;DHT22;4703;48.748;19.142;2022-10-23T16:31:26;14.70;99.90
9329;DHT22;4703;48.748;19.142;2022-10-23T16:33:57;13.40;99.90
9329;DHT22;4703;48.748;19.142;2022-10-23T16:36:25;15.10;99.90
9329;DHT22;4703;48.748;19.142;2022-10-23T16:38:53;12.60;99.90
9329;DHT22;4703;48.748;19.142;2022-10-23T16:41:20;13.90;99.90
9329;DHT22;4703;48.748;19.142;2022-10-23T16:43:46;14.40;99.90
9329;DHT22;4703;48.748;19.142;2022-10-23T16:46:17;13.90;99.90
9329;DHT22;4703;48.748;19.142;2022-10-23T16:48:45;15.30;99.90
9329;DHT22;4703;48.748;19.142;2022-10-23T16:51:15;15.20;99.90
9329;DHT22;4703;48.748;19.142;2022-10-23T16:53:44;14.10;99.90
9329;DHT22;4703;48.748;19.142;2022-10-23T16:56:13;13.20;99.90
9329;DHT22;4703;48.748;19.142;2022-10-23T16:58:41;12.50;99.90
9329;DHT22;4703;48.748;19.142;2022-10-23T17:01:10;12.50;99.90
9329;DHT22;4703;48.748;19.142;2022-10-23T17:03:41;12.60;99.90
9329;DHT22;4703;48.748;19.142;2022-10-23T17:06:11;12.60;99.90
9329;DHT22;4703;48.748;19.142;2022-10-23T17:08:39;15.30;99.90
9329;DHT22;4703;48.748;19.142;2022-10-23T17:11:22;15.30;99.90
9329;DHT22;4703;48.748;19.142;2022-10-23T17:13:58;12.60;99.90
9329;DHT22;4703;48.748;19.142;2022-10-23T17:16:37;14.30;99.90
9329;DHT22;4703;48.748;19.142;2022-10-23T17:19:08;12.60;99.90
9329;DHT22;4703;48.748;19.142;2022-10-23T17:21:55;12.60;99.90
9329;DHT22;4703;48.748;19.142;2022-10-23T17:24:23;12.60;99.90
9329;DHT22;4703;48.748;19.142;2022-10-23T17:26:50;14.90;99.90
9329;DHT22;4703;48.748;19.142;2022-10-23T17:29:18;12.60;99.90
9329;DHT22;4703;48.748;19.142;2022-10-23T17:31:48;12.60;99.90
9329;DHT22;4703;48.748;19.142;2022-10-23T17:34:19;13.00;99.90
9329;DHT22;4703;48.748;19.142;2022-10-23T17:36:49;12.60;99.90
9329;DHT22;4703;48.748;19.142;2022-10-23T17:39:21;13.20;99.90
9329;DHT22;4703;48.748;19.142;2022-10-23T17:41:50;14.80;99.90
9329;DHT22;4703;48.748;19.142;2022-10-23T17:44:18;13.70;99.90